Terminal Aerodrome Forecast
Issued by NWS Wilmington, OH

Current Version | Previous Version | Graphics & Text | Print | Product List | Glossary On
Versions: 1 2 3 4 5 6 7 8 9 10 11 12 13 14 15 16 17 18 19 20 21 22 23 24 25 26
000
FTUS41 KILN 301525 AAB
TAFDAY
TAF AMD
KDAY 301525Z 3015/0112 21008KT P6SM SCT006 BKN040
      TEMPO 3015/3017 BKN006
     FM301700 24012G20KT P6SM BKN035
      TEMPO 3017/3018 BKN008
     FM302300 25012KT P6SM SCT040
     FM010300 25012KT P6SM OVC035=

USA.gov is the U.S. government's official web portal to all federal, state and local government web resources and services.